DuBois Regional Airport Dubois US
ICAO: KDUJ
IATA: DUJ
Category: Medium
Scheduled Services: Yes

Elevation: 1817 ft
TransAlt. 18000 ft.

Airport Communications:
ASOS:119.025
CLEVELAND CNTR:126.72
CTAF:123
ALTOONA RDO:122.2
UNICOM:123

KDUJ Zoom In..

If you have problems with the map follow the link
https://www.worldairports.se/pages/airport.php?
ICAO=KDUJ

Runways:

(A) RW 07 length 5503 ft width 100 ft
---- / hdg 72

(B) RW 25 length 5503 ft width 100 ft
ILS 109.90 / hdg 252

Location; KDUJ
Day. 10 / Time. 01.53 Zulu
* Altimeter: 29.58
* Temperature: 11° c. 51.8°f.
* Wind from: 220° Speed 11 kn with Gusts up to 17 kn.
Dewpoint: 10° c.
Visibility: 4 Statute Miles.
Clouds: Overcast 600 ft.
Conditions: Mist.

KDUJ 100153Z AUTO 22011G17KT 4SM BR OVC006 11/10 A2958 RMK AO2 CIG 004V009 SLP023 P0001 T01110100


Wind From 220°
Speed 11 kn.

 
 
jpsmedia worldairports.se 2019   terms of use